NCAR-RAP Real-Time Weather Data

Output produced by METARs form (30 April 2017  03:14 UTC)
found at http://weather.rap.ucar.edu/surface/
 
Conditions at: KPGD observed 30 April 2017  02:53 UTC
Temperature: 25.0°C (77°F)
Dewpoint: 19.4°C (67°F) [RH = 71%]
Pressure (altimeter): 30.11 inches Hg (1019.7 mb)
[Sea-level pressure: 1019.7 mb]
Winds: from the ESE (110 degrees) at 10 MPH (9 knots; 4.7 m/s)
Visibility: 10 or more miles (16+ km)
Ceiling: at least 12,000 feet AGL
Clouds: sky clear below 12,000 feet AGL
Present Weather: automated observation with no human augmentation;
there may or may not be significant weather present at this time
KPGD 300253Z AUTO 11009KT 10SM CLR 25/19 A3011 RMK AO2 SLP197 T02500194 51017

Conditions at: KPGD observed 30 April 2017  01:53 UTC
Temperature: 26.1°C (79°F)
Dewpoint: 18.9°C (66°F) [RH = 65%]
Pressure (altimeter): 30.10 inches Hg (1019.4 mb)
[Sea-level pressure: 1019.3 mb]
Winds: from the ESE (110 degrees) at 13 MPH (11 knots; 5.7 m/s)
Visibility: 10 or more miles (16+ km)
Ceiling: at least 12,000 feet AGL
Clouds: sky clear below 12,000 feet AGL
Present Weather: automated observation with no human augmentation;
there may or may not be significant weather present at this time
KPGD 300153Z AUTO 11011KT 10SM CLR 26/19 A3010 RMK AO2 SLP193 T02610189

Conditions at: KPGD observed 30 April 2017  00:53 UTC
Temperature: 27.8°C (82°F)
Dewpoint: 18.3°C (65°F) [RH = 56%]
Pressure (altimeter): 30.08 inches Hg (1018.7 mb)
[Sea-level pressure: 1018.6 mb]
Winds: from the ESE (110 degrees) at 15 MPH (13 knots; 6.8 m/s)
gusting to 21 MPH (18 knots; 9.4 m/s)
Visibility: 10 or more miles (16+ km)
Ceiling: at least 12,000 feet AGL
Clouds: sky clear below 12,000 feet AGL
Present Weather: automated observation with no human augmentation;
there may or may not be significant weather present at this time
KPGD 300053Z AUTO 11013G18KT 10SM CLR 28/18 A3008 RMK AO2 SLP186 T02780183

Conditions at: KPGD observed 29 April 2017  23:53 UTC
Temperature: 29.4°C (85°F)
Dewpoint: 17.8°C (64°F) [RH = 50%]
Pressure (altimeter): 30.06 inches Hg (1018.0 mb)
[Sea-level pressure: 1018.0 mb]
Winds: from the ESE (110 degrees) at 13 MPH (11 knots; 5.7 m/s)
Visibility: 10 or more miles (16+ km)
Ceiling: at least 12,000 feet AGL
Clouds: sky clear below 12,000 feet AGL
Present Weather: no significant weather observed at this time
KPGD 292353Z 11011KT 10SM CLR 29/18 A3006 RMK AO2 SLP180 T02940178 10350 20294 53006

Conditions at: KPGD observed 29 April 2017  22:53 UTC
Temperature: 31.7°C (89°F)
Dewpoint: 16.1°C (61°F) [RH = 39%]
Pressure (altimeter): 30.05 inches Hg (1017.7 mb)
[Sea-level pressure: 1017.5 mb]
Winds: from the E (100 degrees) at 17 MPH (15 knots; 7.8 m/s)
gusting to 23 MPH (20 knots; 10.4 m/s)
Visibility: 10 or more miles (16+ km)
Ceiling: at least 12,000 feet AGL
Clouds: sky clear below 12,000 feet AGL
Present Weather: no significant weather observed at this time
KPGD 292253Z 10015G20KT 10SM CLR 32/16 A3005 RMK AO2 SLP175 T03170161

Conditions at: KPGD observed 29 April 2017  21:53 UTC
Temperature: 33.3°C (92°F)
Dewpoint: 16.1°C (61°F) [RH = 36%]
Pressure (altimeter): 30.04 inches Hg (1017.4 mb)
[Sea-level pressure: 1017.2 mb]
Winds: from the ESE (110 degrees) at 16 MPH (14 knots; 7.3 m/s)
Visibility: 10 or more miles (16+ km)
Ceiling: at least 12,000 feet AGL
Clouds: few clouds at 6500 feet AGL
Present Weather: no significant weather observed at this time
KPGD 292153Z 11014KT 10SM FEW065 33/16 A3004 RMK AO2 SLP172 T03330161

Conditions at: KPGD observed 29 April 2017  20:53 UTC
Temperature: 35.0°C (95°F)
Dewpoint: 15.6°C (60°F) [RH = 32%]
Pressure (altimeter): 30.04 inches Hg (1017.4 mb)
[Sea-level pressure: 1017.4 mb]
Winds: from the ESE (110 degrees) at 18 MPH (16 knots; 8.3 m/s)
gusting to 25 MPH (22 knots; 11.4 m/s)
Visibility: 10 or more miles (16+ km)
Ceiling: at least 12,000 feet AGL
Clouds: sky clear below 12,000 feet AGL
Present Weather: no significant weather observed at this time
KPGD 292053Z 11016G22KT 10SM CLR 35/16 A3004 RMK AO2 SLP174 T03500156 56019

Conditions at: KPGD observed 29 April 2017  19:53 UTC
Temperature: 33.9°C (93°F)
Dewpoint: 16.7°C (62°F) [RH = 36%]
Pressure (altimeter): 30.05 inches Hg (1017.7 mb)
[Sea-level pressure: 1017.7 mb]
Winds: from the ESE (120 degrees) at 15 MPH (13 knots; 6.8 m/s)
gusting to 25 MPH (22 knots; 11.4 m/s)
Visibility: 10 or more miles (16+ km)
Ceiling: 9500 feet AGL
Clouds: scattered clouds at 7000 feet AGL
broken clouds at 9500 feet AGL
Present Weather: no significant weather observed at this time
KPGD 291953Z 12013G22KT 10SM SCT070 BKN095 34/17 A3005 RMK AO2 SLP177 T03390167

Conditions at: KPGD observed 29 April 2017  18:53 UTC
Temperature: 34.4°C (94°F)
Dewpoint: 17.2°C (63°F) [RH = 36%]
Pressure (altimeter): 30.08 inches Hg (1018.7 mb)
[Sea-level pressure: 1018.5 mb]
Winds: from the SE (130 degrees) at 15 MPH (13 knots; 6.8 m/s)
gusting to 23 MPH (20 knots; 10.4 m/s)
Visibility: 10 or more miles (16+ km)
Ceiling: 6500 feet AGL
Clouds: broken clouds at 6500 feet AGL
broken clouds at 8000 feet AGL
Present Weather: no significant weather observed at this time
KPGD 291853Z 13013G20KT 10SM BKN065 BKN080 34/17 A3008 RMK AO2 SLP185 T03440172

Conditions at: KPGD observed 29 April 2017  17:53 UTC
Temperature: 34.4°C (94°F)
Dewpoint: 17.2°C (63°F) [RH = 36%]
Pressure (altimeter): 30.10 inches Hg (1019.4 mb)
[Sea-level pressure: 1019.3 mb]
Winds: from the S (170 degrees) at 14 MPH (12 knots; 6.2 m/s)
gusting to 23 MPH (20 knots; 10.4 m/s)
Visibility: 10 or more miles (16+ km)
Ceiling: at least 12,000 feet AGL
Clouds: scattered clouds at 6500 feet AGL
Present Weather: no significant weather observed at this time
KPGD 291753Z 17012G20KT 10SM SCT065 34/17 A3010 RMK AO2 SLP193 T03440172 10344 20239 58011

Conditions at: KPGD observed 29 April 2017  16:53 UTC
Temperature: 32.8°C (91°F)
Dewpoint: 17.8°C (64°F) [RH = 41%]
Pressure (altimeter): 30.11 inches Hg (1019.7 mb)
[Sea-level pressure: 1019.7 mb]
Winds: from the SE (130 degrees) at 18 MPH (16 knots; 8.3 m/s)
gusting to 26 MPH (23 knots; 12.0 m/s)
Visibility: 10 or more miles (16+ km)
Ceiling: at least 12,000 feet AGL
Clouds: scattered clouds at 5500 feet AGL
Present Weather: no significant weather observed at this time
KPGD 291653Z 13016G23KT 10SM SCT055 33/18 A3011 RMK AO2 SLP197 T03280178

Conditions at: KPGD observed 29 April 2017  15:53 UTC
Temperature: 31.1°C (88°F)
Dewpoint: 18.9°C (66°F) [RH = 48%]
Pressure (altimeter): 30.13 inches Hg (1020.4 mb)
[Sea-level pressure: 1020.4 mb]
Winds: from the SE (130 degrees) at 15 MPH (13 knots; 6.8 m/s)
gusting to 22 MPH (19 knots; 9.9 m/s)
Visibility: 10 or more miles (16+ km)
Ceiling: 4400 feet AGL
Clouds: broken clouds at 4400 feet AGL
Present Weather: no significant weather observed at this time
KPGD 291553Z 13013G19KT 10SM BKN044 31/19 A3013 RMK AO2 SLP204 T03110189

Conditions at: KPGD observed 29 April 2017  14:53 UTC
Temperature: 30.6°C (87°F)
Dewpoint: 20.0°C (68°F) [RH = 53%]
Pressure (altimeter): 30.13 inches Hg (1020.4 mb)
[Sea-level pressure: 1020.5 mb]
Winds: from the SE (140 degrees) at 17 MPH (15 knots; 7.8 m/s)
Visibility: 10 or more miles (16+ km)
Ceiling: at least 12,000 feet AGL
Clouds: scattered clouds at 3500 feet AGL
Present Weather: no significant weather observed at this time
KPGD 291453Z 14015KT 10SM SCT035 31/20 A3013 RMK AO2 SLP205 T03060200 50003

Conditions at: KPGD observed 29 April 2017  13:53 UTC
Temperature: 28.3°C (83°F)
Dewpoint: 21.1°C (70°F) [RH = 65%]
Pressure (altimeter): 30.15 inches Hg (1021.1 mb)
[Sea-level pressure: 1020.8 mb]
Winds: from the SE (130 degrees) at 16 MPH (14 knots; 7.3 m/s)
Visibility: 10 or more miles (16+ km)
Ceiling: at least 12,000 feet AGL
Clouds: scattered clouds at 2300 feet AGL
Present Weather: no significant weather observed at this time
KPGD 291353Z 13014KT 100V160 10SM SCT023 28/21 A3015 RMK AO2 SLP208 T02830211

Conditions at: KPGD observed 29 April 2017  13:45 UTC
Temperature: 27.8°C (82°F)
Dewpoint: 21.1°C (70°F) [RH = 67%]
Pressure (altimeter): 30.15 inches Hg (1021.1 mb)
Winds: from the SE (140 degrees) at 17 MPH (15 knots; 7.8 m/s)
gusting to 23 MPH (20 knots; 10.4 m/s)
Visibility: 10 or more miles (16+ km)
Ceiling: at least 12,000 feet AGL
Clouds: scattered clouds at 2300 feet AGL
scattered clouds at 2900 feet AGL
Present Weather: no significant weather observed at this time
KPGD 291345Z 14015G20KT 10SM SCT023 SCT029 28/21 A3015 RMK AO2 T02780211

Conditions at: KPGD observed 29 April 2017  13:33 UTC
Temperature: 27.8°C (82°F)
Dewpoint: 21.1°C (70°F) [RH = 67%]
Pressure (altimeter): 30.15 inches Hg (1021.1 mb)
Winds: from the SSE (150 degrees) at 17 MPH (15 knots; 7.8 m/s)
Visibility: 10 or more miles (16+ km)
Ceiling: 2100 feet AGL
Clouds: broken clouds at 2100 feet AGL
Present Weather: no significant weather observed at this time
KPGD 291333Z 15015KT 10SM BKN021 28/21 A3015 RMK AO2 T02780211

Conditions at: KPGD observed 29 April 2017  12:53 UTC
Temperature: 26.7°C (80°F)
Dewpoint: 22.2°C (72°F) [RH = 76%]
Pressure (altimeter): 30.14 inches Hg (1020.7 mb)
[Sea-level pressure: 1020.7 mb]
Winds: from the ESE (120 degrees) at 13 MPH (11 knots; 5.7 m/s)
Visibility: 10 or more miles (16+ km)
Ceiling: at least 12,000 feet AGL
Clouds: few clouds at 1300 feet AGL
Present Weather: no significant weather observed at this time
KPGD 291253Z 12011KT 10SM FEW013 27/22 A3014 RMK AO2 SLP207 T02670222

Conditions at: KPGD observed 29 April 2017  11:53 UTC
Temperature: 23.9°C (75°F)
Dewpoint: 22.2°C (72°F) [RH = 90%]
Pressure (altimeter): 30.13 inches Hg (1020.4 mb)
[Sea-level pressure: 1020.2 mb]
Winds: from the ESE (110 degrees) at 10 MPH (9 knots; 4.7 m/s)
Visibility: 9 miles (14 km)
Ceiling: at least 12,000 feet AGL
Clouds: sky clear below 12,000 feet AGL
Present Weather: no significant weather observed at this time
KPGD 291153Z 11009KT 9SM CLR 24/22 A3013 RMK AO2 SLP202 T02390222 10239 20228 53014

Conditions at: KPGD observed 29 April 2017  10:53 UTC
Temperature: 22.8°C (73°F)
Dewpoint: 22.2°C (72°F) [RH = 96%]
Pressure (altimeter): 30.11 inches Hg (1019.7 mb)
[Sea-level pressure: 1019.6 mb]
Winds: from the ESE (110 degrees) at 10 MPH (9 knots; 4.7 m/s)
Visibility: 7 miles (11 km)
Ceiling: at least 12,000 feet AGL
Clouds: sky clear below 12,000 feet AGL
Present Weather: no significant weather observed at this time
KPGD 291053Z 11009KT 7SM CLR 23/22 A3011 RMK AO2 SLP196 T02280222

Conditions at: KPGD observed 29 April 2017  09:53 UTC
Temperature: 22.8°C (73°F)
Dewpoint: 21.7°C (71°F) [RH = 94%]
Pressure (altimeter): 30.09 inches Hg (1019.0 mb)
[Sea-level pressure: 1018.8 mb]
Winds: from the E (100 degrees) at 10 MPH (9 knots; 4.7 m/s)
Visibility: 8 miles (13 km)
Ceiling: at least 12,000 feet AGL
Clouds: sky clear below 12,000 feet AGL
Present Weather: automated observation with no human augmentation;
there may or may not be significant weather present at this time
KPGD 290953Z AUTO 10009KT 8SM CLR 23/22 A3009 RMK AO2 SLP188 T02280217

Conditions at: KPGD observed 29 April 2017  08:53 UTC
Temperature: 22.8°C (73°F)
Dewpoint: 22.2°C (72°F) [RH = 96%]
Pressure (altimeter): 30.09 inches Hg (1019.0 mb)
[Sea-level pressure: 1018.8 mb]
Winds: from the ESE (110 degrees) at 8 MPH (7 knots; 3.6 m/s)
Visibility: 9 miles (14 km)
Ceiling: at least 12,000 feet AGL
Clouds: sky clear below 12,000 feet AGL
Present Weather: automated observation with no human augmentation;
there may or may not be significant weather present at this time
KPGD 290853Z AUTO 11007KT 9SM CLR 23/22 A3009 RMK AO2 SLP188 T02280222 56005

Conditions at: KPGD observed 29 April 2017  07:53 UTC
Temperature: 23.3°C (74°F)
Dewpoint: 22.2°C (72°F) [RH = 94%]
Pressure (altimeter): 30.09 inches Hg (1019.0 mb)
[Sea-level pressure: 1018.9 mb]
Winds: from the ESE (110 degrees) at 8 MPH (7 knots; 3.6 m/s)
Visibility: 9 miles (14 km)
Ceiling: at least 12,000 feet AGL
Clouds: sky clear below 12,000 feet AGL
Present Weather: automated observation with no human augmentation;
there may or may not be significant weather present at this time
KPGD 290753Z AUTO 11007KT 9SM CLR 23/22 A3009 RMK AO2 SLP189 T02330222

Conditions at: KPGD observed 29 April 2017  06:53 UTC
Temperature: 23.3°C (74°F)
Dewpoint: 21.7°C (71°F) [RH = 91%]
Pressure (altimeter): 30.09 inches Hg (1019.0 mb)
[Sea-level pressure: 1019.0 mb]
Winds: from the ESE (120 degrees) at 8 MPH (7 knots; 3.6 m/s)
Visibility: 10 or more miles (16+ km)
Ceiling: at least 12,000 feet AGL
Clouds: sky clear below 12,000 feet AGL
Present Weather: automated observation with no human augmentation;
there may or may not be significant weather present at this time
KPGD 290653Z AUTO 12007KT 10SM CLR 23/22 A3009 RMK AO2 SLP190 T02330217

Conditions at: KPGD observed 29 April 2017  05:53 UTC
Temperature: 23.9°C (75°F)
Dewpoint: 21.7°C (71°F) [RH = 88%]
Pressure (altimeter): 30.10 inches Hg (1019.4 mb)
[Sea-level pressure: 1019.4 mb]
Winds: from the ESE (110 degrees) at 9 MPH (8 knots; 4.2 m/s)
Visibility: 10 or more miles (16+ km)
Ceiling: at least 12,000 feet AGL
Clouds: sky clear below 12,000 feet AGL
Present Weather: automated observation with no human augmentation;
there may or may not be significant weather present at this time
KPGD 290553Z AUTO 11008KT 10SM CLR 24/22 A3010 RMK AO2 SLP194 T02390217 10300 20239 50000

Conditions at: KPGD observed 29 April 2017  04:53 UTC
Temperature: 24.4°C (76°F)
Dewpoint: 21.7°C (71°F) [RH = 85%]
Pressure (altimeter): 30.11 inches Hg (1019.7 mb)
[Sea-level pressure: 1019.5 mb]
Winds: from the E (100 degrees) at 6 MPH (5 knots; 2.6 m/s)
Visibility: 10 or more miles (16+ km)
Ceiling: at least 12,000 feet AGL
Clouds: sky clear below 12,000 feet AGL
Present Weather: automated observation with no human augmentation;
there may or may not be significant weather present at this time
KPGD 290453Z AUTO 10005KT 10SM CLR 24/22 A3011 RMK AO2 SLP195 T02440217 403560183

Conditions at: KPGD observed 29 April 2017  03:53 UTC
Temperature: 25.0°C (77°F)
Dewpoint: 21.1°C (70°F) [RH = 79%]
Pressure (altimeter): 30.10 inches Hg (1019.4 mb)
[Sea-level pressure: 1019.3 mb]
Winds: from the ESE (120 degrees) at 12 MPH (10 knots; 5.2 m/s)
Visibility: 10 or more miles (16+ km)
Ceiling: at least 12,000 feet AGL
Clouds: sky clear below 12,000 feet AGL
Present Weather: automated observation with no human augmentation;
there may or may not be significant weather present at this time
KPGD 290353Z AUTO 12010KT 10SM CLR 25/21 A3010 RMK AO2 SLP193 T02500211